Latest Weather Observations for Coconut Island

IDQ60801

Issued at 7:06 pm EST Monday 30 March 2015 (issued every 30 minutes, with the page automatically refreshed every 10 minutes)

About weather observations | Map of weather stations | Latest weather observations for QLD | Other Formats
Station Details ID: 027054 Name: COCONUT ISLAND Lat: -10.05 Lon: 143.07 Height: 3.5 m
Data from the previous 72 hours. | See also: Recent months at Coconut Island
Date/Time
EST
Temp
°C
App
Temp
°C
Dew
Point
Rel
Hum
%
Delta-T
°C
Wind Press
QNH
hPa
Press
MSL
hPa
Rain
since 9 am
mm
Dir
 
Spd
km/h
Gust
km/h
Spd
kts
Gust
kts
30/07:00pm 28.3 - - - - SSE 6 9 3 5 1011.0 1010.9 0.0
30/06:30pm 28.5 - - - - SE 6 11 3 6 1010.6 1010.5 0.0
30/06:00pm 29.5 - - - - SSE 6 11 3 6 1010.3 1010.2 0.0
30/05:30pm 30.0 - - - - SSE 6 9 3 5 1010.1 1010.0 0.0
30/05:00pm 31.0 - - - - SE 6 11 3 6 1009.8 1009.7 0.0
30/04:30pm 30.9 - - - - SE 7 17 4 9 1009.9 1009.8 0.0
30/04:00pm 31.4 - - - - SE 6 13 3 7 1009.8 1009.7 0.0
30/03:30pm 31.8 - - - - SE 7 17 4 9 1009.8 1009.7 0.0
30/03:00pm 32.0 - - - - ESE 9 17 5 9 1010.1 1010.0 0.0
30/02:30pm 32.4 - - - - ESE 9 19 5 10 1010.1 1010.0 0.0
30/02:00pm 32.1 - - - - ESE 9 19 5 10 1010.4 1010.3 0.0
30/01:30pm 32.0 - - - - ESE 11 20 6 11 1010.7 1010.6 0.0
30/01:00pm 32.5 - - - - ESE 9 20 5 11 1011.0 1010.9 0.0
30/12:30pm 32.0 - - - - ESE 11 19 6 10 1011.4 1011.3 0.0
30/12:00pm 32.3 - - - - ESE 11 19 6 10 1012.0 1011.9 0.0
30/11:30am 32.3 - - - - ESE 11 19 6 10 1012.6 1012.5 0.0
30/11:00am 31.6 - - - - ESE 11 19 6 10 1012.8 1012.7 0.0
30/10:30am 31.3 - - - - ESE 11 20 6 11 1013.1 1013.0 0.0
30/10:00am 31.3 - - - - ESE 11 19 6 10 1013.3 1013.2 0.0
30/09:30am 30.8 - - - - ESE 11 20 6 11 1013.4 1013.3 0.0
30/09:00am 29.8 - - - - ESE 9 19 5 10 1013.3 1013.2 0.0
30/08:30am 29.0 - - - - ESE 9 17 5 9 1013.2 1013.1 0.0
30/08:00am 28.7 - - - - ESE 11 17 6 9 1012.7 1012.6 0.0
30/07:30am 27.3 - - - - ESE 11 20 6 11 1012.4 1012.3 0.0
30/07:00am 26.6 - - - - ESE 9 17 5 9 1012.0 1011.9 0.0
30/06:30am 26.2 - - - - ESE 9 17 5 9 1011.8 1011.7 0.0
30/06:00am 26.1 - - - - ESE 7 15 4 8 1011.4 1011.3 0.0
30/05:30am 26.1 - - - - ESE 7 15 4 8 1011.2 1011.1 0.0
30/05:00am 25.6 - - - - SE 7 15 4 8 1011.0 1010.9 0.0
30/04:30am 25.9 - - - - ESE 7 13 4 7 1010.9 1010.8 0.0
30/04:00am 25.6 - - - - SE 4 7 2 4 1011.0 1010.9 0.0
30/03:30am 25.6 - - - - SE 4 7 2 4 1010.6 1010.5 0.0
30/03:00am 25.8 - - - - SE 7 11 4 6 1010.9 1010.8 0.0
30/02:30am 26.0 - - - - SE 6 17 3 9 1010.9 1010.8 0.0
30/02:00am 26.2 - - - - SE 6 11 3 6 1011.0 1010.9 0.0
30/01:30am 26.3 - - - - SE 4 11 2 6 1011.2 1011.1 0.0
30/01:00am 26.6 - - - - SE 7 19 4 10 1011.6 1011.5 0.0
30/12:30am 26.8 - - - - SE 7 17 4 9 1012.0 1011.9 0.0
30/12:00am 27.0 - - - - SE 7 17 4 9 1012.3 1012.2 0.0
 
Date/Time
EST
Temp
°C
App
Temp
°C
Dew
Point
Rel
Hum
%
Delta-T
°C
Wind Press
QNH
hPa
Press
MSL
hPa
Rain
since 9 am
mm
Dir
 
Spd
km/h
Gust
km/h
Spd
kts
Gust
kts
29/11:30pm 27.0 - - - - SE 7 17 4 9 1012.4 1012.3 0.0
29/11:00pm 27.0 - - - - SE 9 17 5 9 1012.6 1012.5 0.0
29/10:30pm 27.1 - - - - SE 9 20 5 11 1012.7 1012.6 0.0
29/10:00pm 27.4 - - - - SE 7 17 4 9 1012.6 1012.5 0.0
29/09:30pm 27.6 - - - - SSE 7 17 4 9 1012.4 1012.3 0.0
29/09:00pm 27.8 - - - - SSE 7 11 4 6 1012.3 1012.2 0.0
29/08:30pm 28.1 - - - - SSE 7 17 4 9 1011.9 1011.8 0.0
29/08:00pm 28.0 - - - - SSE 6 13 3 7 1011.7 1011.6 0.0
29/07:30pm 28.0 - - - - SE 6 13 3 7 1011.5 1011.4 0.0
29/07:00pm 27.9 - - - - SSE 6 9 3 5 1011.3 1011.2 0.0
29/06:30pm 28.3 - - - - SSE 4 7 2 4 1011.1 1011.0 0.0
29/06:00pm 29.3 - - - - SSE 4 7 2 4 1010.4 1010.3 0.0
29/05:30pm 29.8 - - - - SE 4 7 2 4 1010.2 1010.1 0.0
29/05:00pm 30.9 - - - - SE 4 7 2 4 1010.0 1009.9 0.0
29/04:30pm 31.9 - - - - SE 4 7 2 4 1009.9 1009.8 0.0
29/04:00pm 32.2 - - - - SE 4 7 2 4 1009.7 1009.6 0.0
29/03:30pm 32.3 - - - - SE 6 17 3 9 1009.8 1009.7 0.0
29/03:00pm 32.3 - - - - SE 7 17 4 9 1009.9 1009.8 0.0
29/02:30pm 32.3 - - - - SE 7 15 4 8 1010.1 1010.0 0.0
29/02:00pm 33.3 - - - - SE 6 13 3 7 1010.4 1010.3 0.0
29/01:30pm 32.8 - - - - SE 7 19 4 10 1010.7 1010.6 0.0
29/01:00pm 33.0 - - - - SE 6 15 3 8 1011.4 1011.3 0.0
29/12:30pm 32.2 - - - - ESE 9 19 5 10 1011.7 1011.6 0.0
29/12:00pm 32.0 - - - - ESE 9 19 5 10 1012.2 1012.1 0.0
29/11:30am 31.8 - - - - ESE 11 20 6 11 1012.5 1012.4 0.0
29/11:00am 31.9 - - - - ESE 9 20 5 11 1013.0 1012.9 0.0
29/10:30am 31.3 - - - - ESE 11 20 6 11 1013.1 1013.0 0.0
29/10:00am 30.5 - - - - ESE 9 19 5 10 1013.5 1013.4 0.0
29/09:30am 29.9 - - - - SE 11 22 6 12 1013.5 1013.4 0.0
29/09:00am 29.8 - - - - ESE 11 20 6 11 1013.1 1013.0 0.0
29/08:30am 29.0 - - - - ESE 11 24 6 13 1012.9 1012.8 0.0
29/08:00am 28.2 - - - - SE 7 20 4 11 1012.6 1012.5 0.0
29/07:30am 26.7 - - - - SE 9 22 5 12 1012.0 1011.9 0.0
29/07:00am 26.4 - - - - SSE 7 19 4 10 1011.6 1011.5 0.0
29/06:30am 26.3 - - - - SE 6 13 3 7 1011.2 1011.1 0.0
29/06:00am 26.5 - - - - SSE 6 13 3 7 1011.0 1010.9 0.0
29/05:30am 26.3 - - - - SE 6 13 3 7 1010.7 1010.6 0.0
29/05:00am 26.5 - - - - SSE 6 11 3 6 1010.5 1010.4 0.0
29/04:30am 26.7 - - - - SSE 6 9 3 5 1010.3 1010.2 0.0
29/04:00am 26.4 - - - - SE 6 11 3 6 1010.4 1010.3 0.0
29/03:30am 26.4 - - - - SSE 6 11 3 6 1010.5 1010.4 0.0
29/03:00am 26.4 - - - - SSE 6 9 3 5 1010.5 1010.4 0.0
29/02:30am 26.5 - - - - SE 6 17 3 9 1010.8 1010.7 0.0
29/02:00am 26.6 - - - - SE 7 19 4 10 1010.9 1010.8 0.0
29/01:30am 26.8 - - - - SE 6 15 3 8 1011.2 1011.1 0.0
29/01:00am 26.8 - - - - SSE 6 11 3 6 1011.5 1011.4 0.0
29/12:30am 26.9 - - - - SE 7 13 4 7 1011.7 1011.6 0.0
29/12:00am 27.0 - - - - SSE 7 20 4 11 1011.9 1011.8 0.0
 
Date/Time
EST
Temp
°C
App
Temp
°C
Dew
Point
Rel
Hum
%
Delta-T
°C
Wind Press
QNH
hPa
Press
MSL
hPa
Rain
since 9 am
mm
Dir
 
Spd
km/h
Gust
km/h
Spd
kts
Gust
kts
28/11:30pm 27.1 - - - - SE 6 17 3 9 1012.3 1012.2 0.0
28/11:00pm 27.3 - - - - SSE 6 9 3 5 1012.3 1012.2 0.0
28/10:30pm 27.4 - - - - SE 6 13 3 7 1012.4 1012.3 0.0
28/10:00pm 27.5 - - - - SSE 6 13 3 7 1012.4 1012.3 0.0
28/09:30pm 27.6 - - - - SE 6 13 3 7 1012.3 1012.2 0.0
28/09:00pm 27.5 - - - - SE 7 13 4 7 1012.1 1012.0 0.0
28/08:30pm 27.7 - - - - SE 7 20 4 11 1011.9 1011.8 0.0
28/08:00pm 27.8 - - - - SE 6 13 3 7 1011.6 1011.5 0.0
28/07:30pm 27.8 - - - - SE 6 13 3 7 1011.2 1011.1 0.0
28/07:00pm 27.7 - - - - SE 6 13 3 7 1010.8 1010.7 0.0
28/06:30pm 27.4 - - - - SSE 6 11 3 6 1010.5 1010.4 0.0
28/06:00pm 27.2 - - - - E 11 22 6 12 1010.2 1010.1 0.0
28/05:30pm 28.2 - - - - E 15 28 8 15 1009.9 1009.8 0.0
28/05:00pm 30.6 - - - - SE 4 9 2 5 1009.6 1009.5 0.0
28/04:30pm 30.7 - - - - SSE 4 9 2 5 1009.6 1009.5 0.0
28/04:00pm 31.7 - - - - SE 6 9 3 5 1009.5 1009.4 0.0
28/03:30pm 32.1 - - - - SE 4 13 2 7 1009.8 1009.7 0.0
28/03:00pm 31.8 - - - - SE 4 9 2 5 1010.0 1009.9 0.0
28/02:30pm 32.4 - - - - SE 6 15 3 8 1010.2 1010.1 0.0
28/02:00pm 32.1 - - - - ESE 6 17 3 9 1010.5 1010.4 0.0
28/01:30pm 31.7 - - - - SE 9 17 5 9 1011.0 1010.9 0.0
28/01:00pm 31.9 - - - - SE 7 17 4 9 1011.5 1011.4 0.0
28/12:30pm 31.7 - - - - ESE 9 15 5 8 1012.0 1011.9 0.0
28/12:00pm 31.3 - - - - ESE 9 17 5 9 1012.4 1012.3 0.0
28/11:30am 30.6 - - - - ESE 11 19 6 10 1013.0 1012.9 0.0
28/11:00am 30.0 - - - - ESE 9 19 5 10 1013.5 1013.4 0.0
28/10:30am 29.7 - - - - E 9 19 5 10 1013.6 1013.5 0.0
28/10:00am 28.7 - - - - E 11 22 6 12 1013.5 1013.4 0.0
28/09:30am 29.1 - - - - E 13 24 7 13 1013.5 1013.4 0.0
28/09:00am 28.5 - - - - E 13 22 7 12 1013.4 1013.3 2.8
28/08:30am 28.0 - - - - ESE 11 19 6 10 1013.0 1012.9 2.8
28/08:00am 27.2 - - - - SE 7 15 4 8 1012.8 1012.7 2.8
28/07:30am 26.4 - - - - ESE 9 17 5 9 1012.5 1012.4 2.8
28/07:00am 25.4 - - - - E 6 11 3 6 1012.3 1012.2 2.8
28/06:30am 24.9 - - - - E 6 9 3 5 1012.0 1011.9 2.8
28/06:00am 24.8 - - - - CALM 0 4 0 2 1011.7 1011.6 2.8
28/05:30am 24.4 - - - - CALM 0 0 0 0 1011.5 1011.4 2.8
28/05:00am 24.1 - - - - SSE 2 4 1 2 1011.3 1011.2 2.8
28/04:30am 25.1 - - - - ESE 19 30 10 16 1011.4 1011.3 2.2
28/04:00am 25.5 - - - - E 13 24 7 13 1011.2 1011.1 2.2
28/03:30am 24.8 - - - - SE 6 13 3 7 1011.2 1011.1 2.2
28/03:00am 24.9 - - - - SE 2 7 1 4 1011.2 1011.1 2.2
28/02:30am 25.9 - - - - SE 4 11 2 6 1011.2 1011.1 1.4
28/02:00am 26.0 - - - - SSE 2 9 1 5 1011.2 1011.1 1.4
28/01:30am 26.1 - - - - SSE 2 9 1 5 1011.5 1011.4 1.4
28/01:00am 26.2 - - - - SSE 2 9 1 5 1011.7 1011.6 1.4
28/12:30am 26.3 - - - - SE 4 9 2 5 1012.0 1011.9 1.4
28/12:00am 26.4 - - - - SSE 2 6 1 3 1012.4 1012.3 1.4
 
Date/Time
EST
Temp
°C
App
Temp
°C
Dew
Point
Rel
Hum
%
Delta-T
°C
Wind Press
QNH
hPa
Press
MSL
hPa
Rain
since 9 am
mm
Dir
 
Spd
km/h
Gust
km/h
Spd
kts
Gust
kts
27/11:30pm 26.2 - - - - SE 4 11 2 6 1012.6 1012.5 1.4
27/11:00pm 26.6 - - - - ESE 6 11 3 6 1012.8 1012.7 1.4
27/10:30pm 26.5 - - - - ESE 4 7 2 4 1013.2 1013.1 1.4
27/10:00pm 26.5 - - - - E 6 11 3 6 1013.3 1013.2 1.4
27/09:30pm 26.5 - - - - E 7 13 4 7 1013.1 1013.0 1.4
27/09:00pm 26.4 - - - - E 11 17 6 9 1012.8 1012.7 1.4
27/08:30pm 26.4 - - - - ENE 13 24 7 13 1012.5 1012.4 1.4
27/08:00pm 26.4 - - - - E 17 28 9 15 1012.0 1011.9 1.4
27/07:30pm 26.6 - - - - E 17 33 9 18 1011.8 1011.7 1.4

Other Formats:

Comma delimited format used in spreadsheet applications
http://www.bom.gov.au/fwo/IDQ60801/IDQ60801.94182.axf

JavaScript Object Notation format (JSON) in row-major order
http://www.bom.gov.au/fwo/IDQ60801/IDQ60801.94182.json